sensor_id;sensor_type;location;lat;lon;timestamp;temperature;humidity
75738;DHT22;64356;45.638;13.764;2022-10-16T00:01:34;22.50;65.20
75738;DHT22;64356;45.638;13.764;2022-10-16T00:04:01;22.50;65.20
75738;DHT22;64356;45.638;13.764;2022-10-16T00:06:28;22.50;65.20
75738;DHT22;64356;45.638;13.764;2022-10-16T00:08:54;22.50;65.20
75738;DHT22;64356;45.638;13.764;2022-10-16T00:11:29;22.50;65.20
75738;DHT22;64356;45.638;13.764;2022-10-16T00:13:58;22.50;65.20
75738;DHT22;64356;45.638;13.764;2022-10-16T00:16:25;22.50;65.20
75738;DHT22;64356;45.638;13.764;2022-10-16T00:18:51;22.50;65.10
75738;DHT22;64356;45.638;13.764;2022-10-16T00:21:19;22.50;65.10
75738;DHT22;64356;45.638;13.764;2022-10-16T00:23:46;22.50;65.10
75738;DHT22;64356;45.638;13.764;2022-10-16T00:26:15;22.50;65.10
75738;DHT22;64356;45.638;13.764;2022-10-16T00:28:41;22.50;65.10
75738;DHT22;64356;45.638;13.764;2022-10-16T00:31:09;22.50;65.10
75738;DHT22;64356;45.638;13.764;2022-10-16T00:33:36;22.50;65.10
75738;DHT22;64356;45.638;13.764;2022-10-16T00:36:04;22.50;65.10
75738;DHT22;64356;45.638;13.764;2022-10-16T00:38:30;22.50;65.00
75738;DHT22;64356;45.638;13.764;2022-10-16T00:40:56;22.50;65.00
75738;DHT22;64356;45.638;13.764;2022-10-16T00:48:57;22.50;64.80
75738;DHT22;64356;45.638;13.764;2022-10-16T00:51:30;22.50;64.70
75738;DHT22;64356;45.638;13.764;2022-10-16T00:53:57;22.50;64.60
75738;DHT22;64356;45.638;13.764;2022-10-16T00:56:23;22.50;64.50
75738;DHT22;64356;45.638;13.764;2022-10-16T00:58:49;22.50;64.50
75738;DHT22;64356;45.638;13.764;2022-10-16T01:01:14;22.50;64.40
75738;DHT22;64356;45.638;13.764;2022-10-16T01:03:40;22.50;64.40
75738;DHT22;64356;45.638;13.764;2022-10-16T01:17:15;22.50;64.20
75738;DHT22;64356;45.638;13.764;2022-10-16T01:28:13;22.50;64.10
75738;DHT22;64356;45.638;13.764;2022-10-16T01:30:42;22.60;64.20
75738;DHT22;64356;45.638;13.764;2022-10-16T01:33:18;22.50;64.10
75738;DHT22;64356;45.638;13.764;2022-10-16T01:35:50;22.60;64.10
75738;DHT22;64356;45.638;13.764;2022-10-16T01:38:23;22.50;64.00
75738;DHT22;64356;45.638;13.764;2022-10-16T01:40:54;22.50;64.00
75738;DHT22;64356;45.638;13.764;2022-10-16T01:43:33;22.60;64.00
75738;DHT22;64356;45.638;13.764;2022-10-16T01:46:00;22.60;63.90
75738;DHT22;64356;45.638;13.764;2022-10-16T01:48:26;22.50;63.80
75738;DHT22;64356;45.638;13.764;2022-10-16T01:51:05;22.50;63.80
75738;DHT22;64356;45.638;13.764;2022-10-16T01:53:32;22.50;63.80
75738;DHT22;64356;45.638;13.764;2022-10-16T01:55:59;22.60;63.80
75738;DHT22;64356;45.638;13.764;2022-10-16T01:58:27;22.60;63.70
75738;DHT22;64356;45.638;13.764;2022-10-16T02:00:56;22.50;63.70
75738;DHT22;64356;45.638;13.764;2022-10-16T02:03:21;22.50;63.70
75738;DHT22;64356;45.638;13.764;2022-10-16T02:05:52;22.50;63.70
75738;DHT22;64356;45.638;13.764;2022-10-16T02:08:20;22.60;63.70
75738;DHT22;64356;45.638;13.764;2022-10-16T02:10:46;22.50;63.60
75738;DHT22;64356;45.638;13.764;2022-10-16T02:15:49;22.60;63.60
75738;DHT22;64356;45.638;13.764;2022-10-16T02:18:14;22.50;63.50
75738;DHT22;64356;45.638;13.764;2022-10-16T02:23:31;22.50;63.40
75738;DHT22;64356;45.638;13.764;2022-10-16T02:26:03;22.50;63.40
75738;DHT22;64356;45.638;13.764;2022-10-16T02:28:42;22.50;63.40
75738;DHT22;64356;45.638;13.764;2022-10-16T02:31:11;22.50;63.40
75738;DHT22;64356;45.638;13.764;2022-10-16T02:33:40;22.50;63.40
75738;DHT22;64356;45.638;13.764;2022-10-16T02:36:07;22.60;63.40
75738;DHT22;64356;45.638;13.764;2022-10-16T02:38:34;22.50;63.30
75738;DHT22;64356;45.638;13.764;2022-10-16T02:41:00;22.50;63.40
75738;DHT22;64356;45.638;13.764;2022-10-16T02:43:25;22.50;63.30
75738;DHT22;64356;45.638;13.764;2022-10-16T02:45:52;22.50;63.30
75738;DHT22;64356;45.638;13.764;2022-10-16T02:48:17;22.50;63.30
75738;DHT22;64356;45.638;13.764;2022-10-16T02:50:43;22.50;63.20
75738;DHT22;64356;45.638;13.764;2022-10-16T02:53:09;22.50;63.20
75738;DHT22;64356;45.638;13.764;2022-10-16T02:55:34;22.60;63.30
75738;DHT22;64356;45.638;13.764;2022-10-16T02:58:00;22.60;63.30
75738;DHT22;64356;45.638;13.764;2022-10-16T03:00:26;22.60;63.20
75738;DHT22;64356;45.638;13.764;2022-10-16T03:02:51;22.50;63.10
75738;DHT22;64356;45.638;13.764;2022-10-16T03:05:17;22.50;63.10
75738;DHT22;64356;45.638;13.764;2022-10-16T03:07:43;22.50;63.10
75738;DHT22;64356;45.638;13.764;2022-10-16T03:10:08;22.60;63.20
75738;DHT22;64356;45.638;13.764;2022-10-16T03:12:34;22.50;63.10
75738;DHT22;64356;45.638;13.764;2022-10-16T03:15:00;22.50;63.00
75738;DHT22;64356;45.638;13.764;2022-10-16T03:17:26;22.60;63.10
75738;DHT22;64356;45.638;13.764;2022-10-16T03:19:51;22.50;63.10
75738;DHT22;64356;45.638;13.764;2022-10-16T03:22:17;22.60;63.10
75738;DHT22;64356;45.638;13.764;2022-10-16T03:24:43;22.60;63.20
75738;DHT22;64356;45.638;13.764;2022-10-16T03:27:09;22.50;63.00
75738;DHT22;64356;45.638;13.764;2022-10-16T03:29:34;22.50;63.00
75738;DHT22;64356;45.638;13.764;2022-10-16T03:32:00;22.50;63.00
75738;DHT22;64356;45.638;13.764;2022-10-16T03:34:26;22.50;63.00
75738;DHT22;64356;45.638;13.764;2022-10-16T03:36:52;22.50;62.90
75738;DHT22;64356;45.638;13.764;2022-10-16T03:39:19;22.50;63.00
75738;DHT22;64356;45.638;13.764;2022-10-16T03:41:45;22.60;63.10
75738;DHT22;64356;45.638;13.764;2022-10-16T03:44:12;22.50;63.00
75738;DHT22;64356;45.638;13.764;2022-10-16T03:46:37;22.50;63.00
75738;DHT22;64356;45.638;13.764;2022-10-16T03:49:03;22.50;63.00
75738;DHT22;64356;45.638;13.764;2022-10-16T03:51:29;22.50;63.00
75738;DHT22;64356;45.638;13.764;2022-10-16T03:53:54;22.50;63.00
75738;DHT22;64356;45.638;13.764;2022-10-16T03:56:20;22.60;63.10
75738;DHT22;64356;45.638;13.764;2022-10-16T03:58:45;22.50;63.10
75738;DHT22;64356;45.638;13.764;2022-10-16T04:01:11;22.50;63.10
75738;DHT22;64356;45.638;13.764;2022-10-16T04:03:37;22.50;63.10
75738;DHT22;64356;45.638;13.764;2022-10-16T04:06:03;22.60;63.20
75738;DHT22;64356;45.638;13.764;2022-10-16T04:08:28;22.50;63.10
75738;DHT22;64356;45.638;13.764;2022-10-16T04:10:54;22.50;63.10
75738;DHT22;64356;45.638;13.764;2022-10-16T04:13:20;22.50;63.10
75738;DHT22;64356;45.638;13.764;2022-10-16T04:15:45;22.50;63.40
75738;DHT22;64356;45.638;13.764;2022-10-16T04:18:11;22.50;63.10
75738;DHT22;64356;45.638;13.764;2022-10-16T04:20:37;22.60;63.20
75738;DHT22;64356;45.638;13.764;2022-10-16T04:23:03;22.50;63.10
75738;DHT22;64356;45.638;13.764;2022-10-16T04:25:30;22.60;63.20
75738;DHT22;64356;45.638;13.764;2022-10-16T04:27:55;22.50;63.10
75738;DHT22;64356;45.638;13.764;2022-10-16T04:30:22;22.50;63.20
75738;DHT22;64356;45.638;13.764;2022-10-16T04:32:52;22.50;63.20
75738;DHT22;64356;45.638;13.764;2022-10-16T04:35:18;22.50;63.10
75738;DHT22;64356;45.638;13.764;2022-10-16T04:37:44;22.60;63.20
75738;DHT22;64356;45.638;13.764;2022-10-16T04:40:10;22.50;63.20
75738;DHT22;64356;45.638;13.764;2022-10-16T04:42:36;22.50;63.20
75738;DHT22;64356;45.638;13.764;2022-10-16T04:45:02;22.50;63.20
75738;DHT22;64356;45.638;13.764;2022-10-16T04:47:28;22.50;63.20
75738;DHT22;64356;45.638;13.764;2022-10-16T04:49:54;22.50;63.20
75738;DHT22;64356;45.638;13.764;2022-10-16T04:52:20;22.50;63.20
75738;DHT22;64356;45.638;13.764;2022-10-16T04:54:46;22.50;63.20
75738;DHT22;64356;45.638;13.764;2022-10-16T04:57:12;22.50;63.20
75738;DHT22;64356;45.638;13.764;2022-10-16T04:59:38;22.50;63.20
75738;DHT22;64356;45.638;13.764;2022-10-16T05:02:03;22.50;63.30
75738;DHT22;64356;45.638;13.764;2022-10-16T05:04:29;22.50;63.20
75738;DHT22;64356;45.638;13.764;2022-10-16T05:06:55;22.50;63.20
75738;DHT22;64356;45.638;13.764;2022-10-16T05:09:20;22.50;63.20
75738;DHT22;64356;45.638;13.764;2022-10-16T05:11:46;22.50;63.20
75738;DHT22;64356;45.638;13.764;2022-10-16T05:14:12;22.50;63.30
75738;DHT22;64356;45.638;13.764;2022-10-16T05:16:37;22.50;63.30
75738;DHT22;64356;45.638;13.764;2022-10-16T05:19:03;22.50;63.30
75738;DHT22;64356;45.638;13.764;2022-10-16T05:21:29;22.50;63.20
75738;DHT22;64356;45.638;13.764;2022-10-16T05:23:54;22.50;63.30
75738;DHT22;64356;45.638;13.764;2022-10-16T05:26:20;22.50;63.30
75738;DHT22;64356;45.638;13.764;2022-10-16T05:28:46;22.50;63.30
75738;DHT22;64356;45.638;13.764;2022-10-16T05:31:12;22.50;63.30
75738;DHT22;64356;45.638;13.764;2022-10-16T05:33:38;22.50;63.30
75738;DHT22;64356;45.638;13.764;2022-10-16T05:36:05;22.50;63.20
75738;DHT22;64356;45.638;13.764;2022-10-16T05:38:33;22.50;63.30
75738;DHT22;64356;45.638;13.764;2022-10-16T05:40:59;22.50;63.40
75738;DHT22;64356;45.638;13.764;2022-10-16T05:43:24;22.50;64.00
75738;DHT22;64356;45.638;13.764;2022-10-16T05:45:57;22.50;63.40
75738;DHT22;64356;45.638;13.764;2022-10-16T05:48:24;22.50;63.30
75738;DHT22;64356;45.638;13.764;2022-10-16T05:50:57;22.50;63.40
75738;DHT22;64356;45.638;13.764;2022-10-16T05:53:23;22.50;63.40
75738;DHT22;64356;45.638;13.764;2022-10-16T05:55:54;22.50;63.50
75738;DHT22;64356;45.638;13.764;2022-10-16T05:58:21;22.50;63.60
75738;DHT22;64356;45.638;13.764;2022-10-16T06:00:57;22.50;63.40
75738;DHT22;64356;45.638;13.764;2022-10-16T06:03:23;22.50;63.40
75738;DHT22;64356;45.638;13.764;2022-10-16T06:05:50;22.50;63.80
75738;DHT22;64356;45.638;13.764;2022-10-16T06:08:16;22.50;64.30
75738;DHT22;64356;45.638;13.764;2022-10-16T06:10:42;22.50;65.40
75738;DHT22;64356;45.638;13.764;2022-10-16T06:13:09;22.50;65.90
75738;DHT22;64356;45.638;13.764;2022-10-16T06:15:35;22.60;66.20
75738;DHT22;64356;45.638;13.764;2022-10-16T06:18:00;22.60;66.50
75738;DHT22;64356;45.638;13.764;2022-10-16T06:20:26;22.60;66.70
75738;DHT22;64356;45.638;13.764;2022-10-16T06:22:51;22.60;66.00
75738;DHT22;64356;45.638;13.764;2022-10-16T06:25:17;22.50;66.60
75738;DHT22;64356;45.638;13.764;2022-10-16T06:27:43;22.50;66.50
75738;DHT22;64356;45.638;13.764;2022-10-16T06:30:09;22.60;66.50
75738;DHT22;64356;45.638;13.764;2022-10-16T06:32:35;22.50;66.30
75738;DHT22;64356;45.638;13.764;2022-10-16T06:35:00;22.50;66.30
75738;DHT22;64356;45.638;13.764;2022-10-16T06:37:27;22.60;66.30
75738;DHT22;64356;45.638;13.764;2022-10-16T06:39:52;22.50;66.10
75738;DHT22;64356;45.638;13.764;2022-10-16T06:42:18;22.50;66.00
75738;DHT22;64356;45.638;13.764;2022-10-16T06:44:44;22.50;65.90
75738;DHT22;64356;45.638;13.764;2022-10-16T06:47:10;22.50;65.80
75738;DHT22;64356;45.638;13.764;2022-10-16T06:49:36;22.50;65.70
75738;DHT22;64356;45.638;13.764;2022-10-16T06:52:02;22.50;65.50
75738;DHT22;64356;45.638;13.764;2022-10-16T06:54:28;22.50;65.30
75738;DHT22;64356;45.638;13.764;2022-10-16T06:56:54;22.50;65.20
75738;DHT22;64356;45.638;13.764;2022-10-16T06:59:20;22.50;65.00
75738;DHT22;64356;45.638;13.764;2022-10-16T07:01:46;22.50;64.90
75738;DHT22;64356;45.638;13.764;2022-10-16T07:04:12;22.50;64.80
75738;DHT22;64356;45.638;13.764;2022-10-16T07:06:38;22.50;64.50
75738;DHT22;64356;45.638;13.764;2022-10-16T07:09:06;22.50;64.40
75738;DHT22;64356;45.638;13.764;2022-10-16T07:11:34;22.50;64.30
75738;DHT22;64356;45.638;13.764;2022-10-16T07:13:59;22.50;64.10
75738;DHT22;64356;45.638;13.764;2022-10-16T07:16:28;22.50;64.00
75738;DHT22;64356;45.638;13.764;2022-10-16T07:18:55;22.50;63.80
75738;DHT22;64356;45.638;13.764;2022-10-16T07:21:25;22.50;63.80
75738;DHT22;64356;45.638;13.764;2022-10-16T07:23:52;22.50;63.50
75738;DHT22;64356;45.638;13.764;2022-10-16T07:26:17;22.50;63.50
75738;DHT22;64356;45.638;13.764;2022-10-16T07:28:44;22.50;63.40
75738;DHT22;64356;45.638;13.764;2022-10-16T07:31:12;22.50;63.20
75738;DHT22;64356;45.638;13.764;2022-10-16T07:33:40;22.50;63.30
75738;DHT22;64356;45.638;13.764;2022-10-16T07:36:07;22.50;63.40
75738;DHT22;64356;45.638;13.764;2022-10-16T07:38:33;22.50;63.20
75738;DHT22;64356;45.638;13.764;2022-10-16T07:41:06;22.50;63.00
75738;DHT22;64356;45.638;13.764;2022-10-16T07:43:33;22.50;63.20
75738;DHT22;64356;45.638;13.764;2022-10-16T07:45:59;22.50;62.90
75738;DHT22;64356;45.638;13.764;2022-10-16T07:48:30;22.50;62.90
75738;DHT22;64356;45.638;13.764;2022-10-16T07:50:59;22.50;62.90
75738;DHT22;64356;45.638;13.764;2022-10-16T07:53:25;22.50;62.80
75738;DHT22;64356;45.638;13.764;2022-10-16T07:55:51;22.50;62.80
75738;DHT22;64356;45.638;13.764;2022-10-16T07:58:17;22.50;62.90
75738;DHT22;64356;45.638;13.764;2022-10-16T08:00:42;22.50;62.80
75738;DHT22;64356;45.638;13.764;2022-10-16T08:03:08;22.50;62.80
75738;DHT22;64356;45.638;13.764;2022-10-16T08:05:34;22.50;62.80
75738;DHT22;64356;45.638;13.764;2022-10-16T08:08:01;22.50;62.80
75738;DHT22;64356;45.638;13.764;2022-10-16T08:10:28;22.60;63.00
75738;DHT22;64356;45.638;13.764;2022-10-16T08:12:54;22.60;63.00
75738;DHT22;64356;45.638;13.764;2022-10-16T08:15:20;22.60;63.00
75738;DHT22;64356;45.638;13.764;2022-10-16T08:18:00;22.60;63.00
75738;DHT22;64356;45.638;13.764;2022-10-16T08:20:27;22.60;63.00
75738;DHT22;64356;45.638;13.764;2022-10-16T08:22:53;22.60;62.90
75738;DHT22;64356;45.638;13.764;2022-10-16T08:25:20;22.60;62.80
75738;DHT22;64356;45.638;13.764;2022-10-16T08:27:46;22.50;62.70
75738;DHT22;64356;45.638;13.764;2022-10-16T08:30:12;22.60;62.70
75738;DHT22;64356;45.638;13.764;2022-10-16T08:32:38;22.60;62.70
75738;DHT22;64356;45.638;13.764;2022-10-16T08:35:05;22.60;62.80
75738;DHT22;64356;45.638;13.764;2022-10-16T08:37:31;22.60;62.80
75738;DHT22;64356;45.638;13.764;2022-10-16T08:39:58;22.60;62.80
75738;DHT22;64356;45.638;13.764;2022-10-16T08:50:28;22.60;62.90
75738;DHT22;64356;45.638;13.764;2022-10-16T08:52:55;22.60;62.90
75738;DHT22;64356;45.638;13.764;2022-10-16T08:55:51;22.60;62.90
75738;DHT22;64356;45.638;13.764;2022-10-16T08:58:20;22.60;62.90
75738;DHT22;64356;45.638;13.764;2022-10-16T09:00:49;22.60;62.90
75738;DHT22;64356;45.638;13.764;2022-10-16T09:06:58;22.60;62.90
75738;DHT22;64356;45.638;13.764;2022-10-16T09:23:13;22.50;62.60
75738;DHT22;64356;45.638;13.764;2022-10-16T09:25:43;22.60;62.90
75738;DHT22;64356;45.638;13.764;2022-10-16T09:28:09;22.60;63.40
75738;DHT22;64356;45.638;13.764;2022-10-16T09:30:36;22.60;64.40
75738;DHT22;64356;45.638;13.764;2022-10-16T09:33:03;22.60;65.90
75738;DHT22;64356;45.638;13.764;2022-10-16T09:35:58;22.60;65.70
75738;DHT22;64356;45.638;13.764;2022-10-16T09:38:35;22.70;65.50
75738;DHT22;64356;45.638;13.764;2022-10-16T09:41:24;22.60;65.30
75738;DHT22;64356;45.638;13.764;2022-10-16T09:43:59;22.60;65.20
75738;DHT22;64356;45.638;13.764;2022-10-16T09:46:34;22.60;65.30
75738;DHT22;64356;45.638;13.764;2022-10-16T09:49:05;22.60;65.20
75738;DHT22;64356;45.638;13.764;2022-10-16T09:51:42;22.60;64.90
75738;DHT22;64356;45.638;13.764;2022-10-16T09:56:35;22.60;65.10
75738;DHT22;64356;45.638;13.764;2022-10-16T09:59:11;22.60;65.30
75738;DHT22;64356;45.638;13.764;2022-10-16T10:01:41;22.60;65.20
75738;DHT22;64356;45.638;13.764;2022-10-16T10:04:08;22.60;65.30
75738;DHT22;64356;45.638;13.764;2022-10-16T10:06:40;22.60;65.20
75738;DHT22;64356;45.638;13.764;2022-10-16T10:09:20;22.60;65.10
75738;DHT22;64356;45.638;13.764;2022-10-16T10:12:02;22.60;65.00
75738;DHT22;64356;45.638;13.764;2022-10-16T10:17:13;22.60;65.50
75738;DHT22;64356;45.638;13.764;2022-10-16T10:19:56;22.60;64.80
75738;DHT22;64356;45.638;13.764;2022-10-16T10:38:58;22.70;64.30
75738;DHT22;64356;45.638;13.764;2022-10-16T10:41:43;22.60;64.80
75738;DHT22;64356;45.638;13.764;2022-10-16T10:44:28;22.70;64.10
75738;DHT22;64356;45.638;13.764;2022-10-16T10:55:43;22.70;64.20
75738;DHT22;64356;45.638;13.764;2022-10-16T10:58:46;22.70;64.30
75738;DHT22;64356;45.638;13.764;2022-10-16T11:01:17;22.70;64.50
75738;DHT22;64356;45.638;13.764;2022-10-16T11:07:16;22.70;65.00
75738;DHT22;64356;45.638;13.764;2022-10-16T11:09:36;22.70;65.00
75738;DHT22;64356;45.638;13.764;2022-10-16T11:12:20;22.70;65.30
75738;DHT22;64356;45.638;13.764;2022-10-16T11:17:23;22.70;65.80
75738;DHT22;64356;45.638;13.764;2022-10-16T11:20:05;22.80;65.80
75738;DHT22;64356;45.638;13.764;2022-10-16T11:22:52;22.70;66.10
75738;DHT22;64356;45.638;13.764;2022-10-16T11:25:25;22.70;66.00
75738;DHT22;64356;45.638;13.764;2022-10-16T11:30:54;22.70;65.90
75738;DHT22;64356;45.638;13.764;2022-10-16T11:33:30;22.70;65.80
75738;DHT22;64356;45.638;13.764;2022-10-16T11:36:18;22.70;65.90
75738;DHT22;64356;45.638;13.764;2022-10-16T11:41:53;22.80;66.10
75738;DHT22;64356;45.638;13.764;2022-10-16T11:49:37;22.80;66.60
75738;DHT22;64356;45.638;13.764;2022-10-16T11:52:28;22.80;66.40
75738;DHT22;64356;45.638;13.764;2022-10-16T11:57:39;22.80;66.30
75738;DHT22;64356;45.638;13.764;2022-10-16T12:00:10;22.80;66.10
75738;DHT22;64356;45.638;13.764;2022-10-16T12:08:12;22.80;66.10
75738;DHT22;64356;45.638;13.764;2022-10-16T12:10:41;22.70;66.00
75738;DHT22;64356;45.638;13.764;2022-10-16T12:13:33;22.70;65.90
75738;DHT22;64356;45.638;13.764;2022-10-16T12:18:38;22.80;65.90
75738;DHT22;64356;45.638;13.764;2022-10-16T12:21:04;22.70;65.90
75738;DHT22;64356;45.638;13.764;2022-10-16T12:23:53;22.70;65.90
75738;DHT22;64356;45.638;13.764;2022-10-16T12:26:29;22.80;66.00
75738;DHT22;64356;45.638;13.764;2022-10-16T12:31:47;22.70;65.80
75738;DHT22;64356;45.638;13.764;2022-10-16T12:36:50;22.70;65.80
75738;DHT22;64356;45.638;13.764;2022-10-16T12:39:27;22.80;65.80
75738;DHT22;64356;45.638;13.764;2022-10-16T12:44:52;22.80;65.80
75738;DHT22;64356;45.638;13.764;2022-10-16T12:49:51;22.70;65.60
75738;DHT22;64356;45.638;13.764;2022-10-16T12:54:51;22.80;65.60
75738;DHT22;64356;45.638;13.764;2022-10-16T13:16:50;22.70;65.70
75738;DHT22;64356;45.638;13.764;2022-10-16T13:30:24;22.70;65.80
75738;DHT22;64356;45.638;13.764;2022-10-16T13:35:25;22.80;65.80
75738;DHT22;64356;45.638;13.764;2022-10-16T13:37:51;22.80;65.90
75738;DHT22;64356;45.638;13.764;2022-10-16T13:40:22;22.80;65.90
75738;DHT22;64356;45.638;13.764;2022-10-16T13:42:49;22.80;65.90
75738;DHT22;64356;45.638;13.764;2022-10-16T13:45:24;22.80;65.80
75738;DHT22;64356;45.638;13.764;2022-10-16T13:48:01;22.80;65.70
75738;DHT22;64356;45.638;13.764;2022-10-16T13:50:27;22.80;65.70
75738;DHT22;64356;45.638;13.764;2022-10-16T13:53:06;22.80;65.70
75738;DHT22;64356;45.638;13.764;2022-10-16T13:55:32;22.80;65.70
75738;DHT22;64356;45.638;13.764;2022-10-16T13:58:14;22.80;65.70
75738;DHT22;64356;45.638;13.764;2022-10-16T14:00:52;22.80;65.70
75738;DHT22;64356;45.638;13.764;2022-10-16T14:03:19;22.80;65.80
75738;DHT22;64356;45.638;13.764;2022-10-16T14:06:06;22.80;65.80
75738;DHT22;64356;45.638;13.764;2022-10-16T14:08:37;22.80;65.80
75738;DHT22;64356;45.638;13.764;2022-10-16T14:11:07;22.80;65.70
75738;DHT22;64356;45.638;13.764;2022-10-16T14:13:39;22.80;65.70
75738;DHT22;64356;45.638;13.764;2022-10-16T14:16:10;22.80;65.70
75738;DHT22;64356;45.638;13.764;2022-10-16T14:18:41;22.80;65.80
75738;DHT22;64356;45.638;13.764;2022-10-16T14:21:13;22.80;65.70
75738;DHT22;64356;45.638;13.764;2022-10-16T14:23:40;22.80;65.70
75738;DHT22;64356;45.638;13.764;2022-10-16T14:28:36;22.80;65.70
75738;DHT22;64356;45.638;13.764;2022-10-16T14:31:31;22.80;65.70
75738;DHT22;64356;45.638;13.764;2022-10-16T14:33:58;22.80;65.70
75738;DHT22;64356;45.638;13.764;2022-10-16T14:36:25;22.80;65.70
75738;DHT22;64356;45.638;13.764;2022-10-16T14:39:22;22.80;65.70
75738;DHT22;64356;45.638;13.764;2022-10-16T14:41:51;22.80;65.80
75738;DHT22;64356;45.638;13.764;2022-10-16T14:44:18;22.80;65.80
75738;DHT22;64356;45.638;13.764;2022-10-16T14:46:45;22.80;65.80
75738;DHT22;64356;45.638;13.764;2022-10-16T14:51:41;22.80;65.90
75738;DHT22;64356;45.638;13.764;2022-10-16T14:54:12;22.80;66.10
75738;DHT22;64356;45.638;13.764;2022-10-16T14:56:52;22.80;66.10
75738;DHT22;64356;45.638;13.764;2022-10-16T14:59:24;22.80;66.10
75738;DHT22;64356;45.638;13.764;2022-10-16T15:01:52;22.80;66.00
75738;DHT22;64356;45.638;13.764;2022-10-16T15:04:18;22.80;66.10
75738;DHT22;64356;45.638;13.764;2022-10-16T15:06:44;22.80;66.00
75738;DHT22;64356;45.638;13.764;2022-10-16T15:09:09;22.80;66.00
75738;DHT22;64356;45.638;13.764;2022-10-16T15:11:36;22.80;66.00
75738;DHT22;64356;45.638;13.764;2022-10-16T15:14:02;22.80;66.10
75738;DHT22;64356;45.638;13.764;2022-10-16T15:16:29;22.80;66.00
75738;DHT22;64356;45.638;13.764;2022-10-16T15:18:54;22.80;66.10
75738;DHT22;64356;45.638;13.764;2022-10-16T15:21:30;22.80;66.00
75738;DHT22;64356;45.638;13.764;2022-10-16T15:23:56;22.80;66.60
75738;DHT22;64356;45.638;13.764;2022-10-16T15:26:24;22.80;66.00
75738;DHT22;64356;45.638;13.764;2022-10-16T15:28:50;22.80;66.00
75738;DHT22;64356;45.638;13.764;2022-10-16T15:31:15;22.80;66.00
75738;DHT22;64356;45.638;13.764;2022-10-16T15:33:41;22.80;66.00
75738;DHT22;64356;45.638;13.764;2022-10-16T15:36:07;22.80;66.00
75738;DHT22;64356;45.638;13.764;2022-10-16T15:38:33;22.80;66.00
75738;DHT22;64356;45.638;13.764;2022-10-16T15:40:59;22.80;66.10
75738;DHT22;64356;45.638;13.764;2022-10-16T15:43:25;22.80;66.00
75738;DHT22;64356;45.638;13.764;2022-10-16T15:46:02;22.80;66.00
75738;DHT22;64356;45.638;13.764;2022-10-16T15:48:29;22.80;66.00
75738;DHT22;64356;45.638;13.764;2022-10-16T15:50:55;22.80;66.10
75738;DHT22;64356;45.638;13.764;2022-10-16T15:53:21;22.80;66.00
75738;DHT22;64356;45.638;13.764;2022-10-16T15:55:46;22.80;66.00
75738;DHT22;64356;45.638;13.764;2022-10-16T15:58:12;22.80;66.00
75738;DHT22;64356;45.638;13.764;2022-10-16T16:00:37;22.40;65.70
75738;DHT22;64356;45.638;13.764;2022-10-16T16:03:03;22.20;67.80
75738;DHT22;64356;45.638;13.764;2022-10-16T16:05:29;22.20;67.60
75738;DHT22;64356;45.638;13.764;2022-10-16T16:07:55;22.30;67.30
75738;DHT22;64356;45.638;13.764;2022-10-16T16:10:20;22.30;67.80
75738;DHT22;64356;45.638;13.764;2022-10-16T16:12:49;21.90;68.00
75738;DHT22;64356;45.638;13.764;2022-10-16T16:15:17;21.80;70.00
75738;DHT22;64356;45.638;13.764;2022-10-16T16:17:43;21.80;70.20
75738;DHT22;64356;45.638;13.764;2022-10-16T16:20:10;22.00;70.60
75738;DHT22;64356;45.638;13.764;2022-10-16T16:22:36;22.10;69.70
75738;DHT22;64356;45.638;13.764;2022-10-16T16:25:01;21.70;68.80
75738;DHT22;64356;45.638;13.764;2022-10-16T16:27:27;21.60;69.40
75738;DHT22;64356;45.638;13.764;2022-10-16T16:29:55;21.60;70.60
75738;DHT22;64356;45.638;13.764;2022-10-16T16:32:21;21.70;69.60
75738;DHT22;64356;45.638;13.764;2022-10-16T16:34:47;21.70;70.40
75738;DHT22;64356;45.638;13.764;2022-10-16T16:37:13;21.40;69.70
75738;DHT22;64356;45.638;13.764;2022-10-16T16:39:38;21.50;71.00
75738;DHT22;64356;45.638;13.764;2022-10-16T16:42:04;21.80;70.90
75738;DHT22;64356;45.638;13.764;2022-10-16T16:44:31;21.70;69.60
75738;DHT22;64356;45.638;13.764;2022-10-16T16:46:57;21.60;70.10
75738;DHT22;64356;45.638;13.764;2022-10-16T16:49:23;21.90;70.80
75738;DHT22;64356;45.638;13.764;2022-10-16T16:51:49;22.00;70.20
75738;DHT22;64356;45.638;13.764;2022-10-16T16:54:14;22.10;69.70
75738;DHT22;64356;45.638;13.764;2022-10-16T16:56:41;22.20;69.40
75738;DHT22;64356;45.638;13.764;2022-10-16T16:59:17;22.20;68.80
75738;DHT22;64356;45.638;13.764;2022-10-16T17:01:45;22.10;68.80
75738;DHT22;64356;45.638;13.764;2022-10-16T17:04:11;22.10;69.10
75738;DHT22;64356;45.638;13.764;2022-10-16T17:06:37;22.10;68.70
75738;DHT22;64356;45.638;13.764;2022-10-16T17:09:05;22.00;68.70
75738;DHT22;64356;45.638;13.764;2022-10-16T17:11:31;21.80;69.00
75738;DHT22;64356;45.638;13.764;2022-10-16T17:13:58;21.70;69.60
75738;DHT22;64356;45.638;13.764;2022-10-16T17:16:31;21.70;69.40
75738;DHT22;64356;45.638;13.764;2022-10-16T17:19:03;21.70;69.30
75738;DHT22;64356;45.638;13.764;2022-10-16T17:21:29;21.70;69.30
75738;DHT22;64356;45.638;13.764;2022-10-16T17:23:57;21.70;70.10
75738;DHT22;64356;45.638;13.764;2022-10-16T17:26:23;22.00;69.30
75738;DHT22;64356;45.638;13.764;2022-10-16T17:28:54;22.10;68.60
75738;DHT22;64356;45.638;13.764;2022-10-16T17:31:21;22.20;68.40
75738;DHT22;64356;45.638;13.764;2022-10-16T17:33:47;22.20;68.20
75738;DHT22;64356;45.638;13.764;2022-10-16T17:36:14;22.30;67.90
75738;DHT22;64356;45.638;13.764;2022-10-16T17:38:43;22.30;67.70
75738;DHT22;64356;45.638;13.764;2022-10-16T17:41:23;22.40;67.80
75738;DHT22;64356;45.638;13.764;2022-10-16T17:43:50;22.40;67.80
75738;DHT22;64356;45.638;13.764;2022-10-16T17:46:18;22.40;67.70
75738;DHT22;64356;45.638;13.764;2022-10-16T17:48:47;22.50;67.80
75738;DHT22;64356;45.638;13.764;2022-10-16T17:51:15;22.40;67.70
75738;DHT22;64356;45.638;13.764;2022-10-16T17:53:41;22.50;67.80
75738;DHT22;64356;45.638;13.764;2022-10-16T17:56:12;22.50;67.70
75738;DHT22;64356;45.638;13.764;2022-10-16T17:58:39;22.50;67.70
75738;DHT22;64356;45.638;13.764;2022-10-16T18:01:17;22.50;67.70
75738;DHT22;64356;45.638;13.764;2022-10-16T18:03:43;22.60;67.80
75738;DHT22;64356;45.638;13.764;2022-10-16T18:06:09;22.60;67.80
75738;DHT22;64356;45.638;13.764;2022-10-16T18:08:37;22.60;67.80
75738;DHT22;64356;45.638;13.764;2022-10-16T18:11:02;22.60;67.80